Time;durP1;ratioP1;P1;durP2;ratioP2;P2;SDS_P1;SDS_P2;PMS_P1;PMS_P2;Temp;Humidity;BMP_temperature;BMP_pressure;BME280_temperature;BME280_humidity;BME280_pressure;Samples;Min_cycle;Max_cycle;Signal;HPM_P1;HPM_P2
2023/06/13 00:01:20;;;;;;;28.10;15.57;;;17.50;84.00;;;;;;5067879;28;20546;-60
2023/06/13 00:03:47;;;;;;;16.47;13.47;;;17.50;83.60;;;;;;5072929;28;20552;-59
2023/06/13 00:06:17;;;;;;;24.27;13.57;;;17.50;83.00;;;;;;5066502;28;20482;-59
2023/06/13 00:08:44;;;;;;;13.37;11.70;;;17.40;82.80;;;;;;5064812;28;20947;-59
2023/06/13 00:11:11;;;;;;;14.13;12.20;;;;;;;;;;5057594;28;20812;-60
2023/06/13 00:13:39;;;;;;;12.10;10.57;;;17.00;82.70;;;;;;5061570;28;20491;-59
2023/06/13 00:16:07;;;;;;;13.30;11.90;;;16.90;83.10;;;;;;5065203;28;20529;-60
2023/06/13 00:18:37;;;;;;;13.50;11.80;;;16.80;83.50;;;;;;5048182;28;20888;-59
2023/06/13 00:21:06;;;;;;;15.43;12.70;;;16.80;83.60;;;;;;5057238;28;21033;-59
2023/06/13 00:23:34;;;;;;;20.60;14.50;;;16.70;83.60;;;;;;5044883;28;20490;-59
2023/06/13 00:26:01;;;;;;;16.60;13.40;;;16.60;84.10;;;;;;5037656;28;20492;-59
2023/06/13 00:28:27;;;;;;;16.23;13.40;;;16.60;84.30;;;;;;5043469;28;20493;-59
2023/06/13 00:30:54;;;;;;;19.77;12.43;;;16.50;84.40;;;;;;5032670;28;20474;-59
2023/06/13 00:33:21;;;;;;;15.43;12.63;;;16.40;84.80;;;;;;5051411;28;20490;-59
2023/06/13 00:35:48;;;;;;;20.17;13.53;;;16.30;84.30;;;;;;5052311;28;20531;-60
2023/06/13 00:38:15;;;;;;;19.43;13.00;;;16.30;85.20;;;;;;5051037;28;20703;-59
2023/06/13 00:40:43;;;;;;;27.33;14.27;;;16.20;85.50;;;;;;5039303;28;20490;-59
2023/06/13 00:43:11;;;;;;;16.50;12.73;;;16.30;85.50;;;;;;5050952;28;21023;-59
2023/06/13 00:45:38;;;;;;;22.53;15.57;;;16.30;86.10;;;;;;5059862;28;20608;-59
2023/06/13 00:48:07;;;;;;;29.10;13.60;;;16.40;86.60;;;;;;5056445;28;20483;-59
2023/06/13 00:50:35;;;;;;;19.60;14.60;;;16.40;86.30;;;;;;5055580;28;20480;-59
2023/06/13 00:53:08;;;;;;;18.77;13.50;;;16.40;86.30;;;;;;5051598;28;20493;-59
2023/06/13 00:55:36;;;;;;;22.03;14.83;;;16.40;86.10;;;;;;5048099;28;21067;-59
2023/06/13 00:58:06;;;;;;;22.20;14.80;;;16.50;86.00;;;;;;5059965;28;20479;-59
2023/06/13 01:00:34;;;;;;;21.10;14.77;;;16.50;85.30;;;;;;5047246;28;20479;-59
2023/06/13 01:03:02;;;;;;;14.93;12.53;;;16.50;85.40;;;;;;5056657;28;20491;-59
2023/06/13 01:05:31;;;;;;;28.60;16.03;;;16.40;84.80;;;;;;5040946;28;20563;-59
2023/06/13 01:07:59;;;;;;;17.83;13.63;;;16.00;84.10;;;;;;5053414;28;20480;-59
2023/06/13 01:10:28;;;;;;;24.10;14.80;;;15.70;84.20;;;;;;5038712;28;20495;-60
2023/06/13 01:13:01;;;;;;;18.27;12.60;;;15.50;84.90;;;;;;5053727;28;20495;-59
2023/06/13 01:15:34;;;;;;;19.30;12.20;;;15.30;85.10;;;;;;5037195;28;21007;-59
2023/06/13 01:18:03;;;;;;;16.03;11.93;;;15.20;85.70;;;;;;5053689;28;20564;-59
2023/06/13 01:20:33;;;;;;;21.67;13.17;;;15.10;86.30;;;;;;5052111;28;20562;-59
2023/06/13 01:23:14;;;;;;;23.03;15.03;;;15.10;86.40;;;;;;5055129;28;20479;-59
2023/06/13 01:25:52;;;;;;;23.20;14.93;;;15.10;86.20;;;;;;5049832;28;20491;-59
2023/06/13 01:28:22;;;;;;;27.40;15.30;;;15.10;86.40;;;;;;5038978;28;21079;-59
2023/06/13 01:30:50;;;;;;;30.20;17.20;;;15.10;86.30;;;;;;5055202;28;20475;-59
2023/06/13 01:33:18;;;;;;;24.93;13.37;;;15.00;85.90;;;;;;5047079;28;20472;-59
2023/06/13 01:35:45;;;;;;;26.13;15.03;;;15.00;85.70;;;;;;5053831;28;21433;-59
2023/06/13 01:38:13;;;;;;;25.20;15.33;;;14.90;85.80;;;;;;5058936;28;20483;-59
2023/06/13 01:40:40;;;;;;;30.53;14.47;;;14.80;86.10;;;;;;5058241;28;20490;-59
2023/06/13 01:43:10;;;;;;;17.60;12.83;;;14.80;85.90;;;;;;5057391;28;21083;-59
2023/06/13 01:45:38;;;;;;;28.73;15.70;;;14.80;86.30;;;;;;5032628;28;20482;-60
2023/06/13 01:48:13;;;;;;;26.10;14.00;;;14.80;86.60;;;;;;5057042;28;20482;-59
2023/06/13 01:50:49;;;;;;;27.20;15.30;;;14.70;86.90;;;;;;5044231;28;20825;-59
2023/06/13 01:53:24;;;;;;;26.03;12.27;;;14.50;86.60;;;;;;5056033;28;20906;-59
2023/06/13 01:55:57;;;;;;;33.93;16.87;;;14.40;86.70;;;;;;5046514;28;20477;-59
2023/06/13 01:58:27;;;;;;;23.43;14.27;;;14.30;86.50;;;;;;5053912;28;20527;-60
2023/06/13 02:00:57;;;;;;;35.60;15.90;;;14.30;87.10;;;;;;5044515;28;20972;-59
2023/06/13 02:03:25;;;;;;;45.03;21.80;;;14.30;87.40;;;;;;5057243;28;20558;-59
2023/06/13 02:05:52;;;;;;;24.50;13.50;;;14.30;87.10;;;;;;5054565;28;20494;-61
2023/06/13 02:08:18;;;;;;;22.30;13.67;;;14.20;86.70;;;;;;5055100;28;20478;-59
2023/06/13 02:10:45;;;;;;;23.20;13.93;;;14.30;86.80;;;;;;5058407;28;20482;-59
2023/06/13 02:13:12;;;;;;;20.67;12.47;;;14.20;87.00;;;;;;5061201;28;20510;-59
2023/06/13 02:15:39;;;;;;;25.13;14.87;;;14.20;86.60;;;;;;5048520;28;21164;-59
2023/06/13 02:18:09;;;;;;;20.63;13.03;;;14.10;86.60;;;;;;5044263;28;20483;-60
2023/06/13 02:20:36;;;;;;;37.20;18.53;;;14.10;86.70;;;;;;5052540;28;20563;-59
2023/06/13 02:23:03;;;;;;;23.90;14.53;;;14.10;87.40;;;;;;5059254;28;20523;-59
2023/06/13 02:25:30;;;;;;;28.40;14.57;;;14.10;86.20;;;;;;5055813;28;20490;-59
2023/06/13 02:27:57;;;;;;;24.70;12.67;;;12.20;85.10;;;;;;5025277;28;20481;-59
2023/06/13 02:30:25;;;;;;;21.73;13.67;;;14.00;86.60;;;;;;5059173;28;20986;-59
2023/06/13 02:32:52;;;;;;;25.43;13.93;;;13.90;86.60;;;;;;5051098;28;20498;-59
2023/06/13 02:35:23;;;;;;;19.37;12.80;;;13.90;87.00;;;;;;5069467;28;21262;-59
2023/06/13 02:37:53;;;;;;;26.97;14.73;;;13.90;87.10;;;;;;5051907;28;20942;-59
2023/06/13 02:40:20;;;;;;;26.37;14.53;;;13.80;87.10;;;;;;5052816;28;20483;-59
2023/06/13 02:42:49;;;;;;;25.80;14.67;;;13.70;87.60;;;;;;5042604;28;20491;-60
2023/06/13 02:45:16;;;;;;;21.20;12.43;;;13.70;88.20;;;;;;5048997;28;22042;-59
2023/06/13 02:47:43;;;;;;;26.93;15.03;;;13.70;87.90;;;;;;5050678;28;20489;-60
2023/06/13 02:50:10;;;;;;;22.33;13.67;;;13.70;88.30;;;;;;5046156;28;20670;-60
2023/06/13 02:52:39;;;;;;;26.60;15.63;;;13.70;87.70;;;;;;5047674;28;20563;-59
2023/06/13 02:55:08;;;;;;;26.40;12.13;;;13.70;87.90;;;;;;5050841;28;20480;-59
2023/06/13 02:57:37;;;;;;;30.70;17.50;;;13.70;88.50;;;;;;5037505;28;20752;-59
2023/06/13 03:00:08;;;;;;;23.00;13.60;;;13.70;88.40;;;;;;5055927;28;20487;-60
2023/06/13 03:02:36;;;;;;;32.10;15.40;;;13.60;88.10;;;;;;5035016;28;20484;-60
2023/06/13 03:05:05;;;;;;;22.27;12.77;;;13.50;87.90;;;;;;5043457;28;20495;-59
2023/06/13 03:07:32;;;;;;;30.50;16.30;;;13.40;87.90;;;;;;5060178;28;20979;-59
2023/06/13 03:10:02;;;;;;;30.37;12.50;;;13.30;88.40;;;;;;5055819;28;20475;-59
2023/06/13 03:12:29;;;;;;;29.50;14.63;;;13.30;88.80;;;;;;5040177;28;20486;-59
2023/06/13 03:14:56;;;;;;;25.60;14.03;;;13.30;88.90;;;;;;5049746;28;20502;-60
2023/06/13 03:17:23;;;;;;;29.80;15.53;;;13.30;89.10;;;;;;5031720;28;20558;-59
2023/06/13 03:19:51;;;;;;;31.43;16.67;;;13.30;88.90;;;;;;5058246;28;20558;-59
2023/06/13 03:22:18;;;;;;;31.80;15.87;;;13.40;90.10;;;;;;5050908;28;20506;-59
2023/06/13 03:24:45;;;;;;;26.27;14.77;;;13.40;90.40;;;;;;5050992;28;20498;-59
2023/06/13 03:27:14;;;;;;;26.07;14.67;;;13.50;90.50;;;;;;5043007;28;20479;-59
2023/06/13 03:29:41;;;;;;;29.13;15.10;;;13.70;90.50;;;;;;5034673;28;20478;-59
2023/06/13 03:32:09;;;;;;;28.57;15.03;;;13.70;90.40;;;;;;5059706;28;20498;-59
2023/06/13 03:34:38;;;;;;;29.53;15.60;;;13.80;90.30;;;;;;5037965;28;21101;-59
2023/06/13 03:37:05;;;;;;;27.20;13.10;;;13.90;90.10;;;;;;5050299;28;20975;-59
2023/06/13 03:39:33;;;;;;;36.30;17.80;;;13.50;89.80;;;;;;5031124;28;20475;-59
2023/06/13 03:42:00;;;;;;;24.00;13.87;;;14.00;90.00;;;;;;5036777;28;20491;-59
2023/06/13 03:44:28;;;;;;;41.17;16.80;;;14.10;89.60;;;;;;5044322;28;20521;-59
2023/06/13 03:46:55;;;;;;;34.80;16.00;;;14.10;89.20;;;;;;5028824;28;20483;-59
2023/06/13 03:49:22;;;;;;;33.67;16.43;;;14.10;89.00;;;;;;5058758;28;20988;-59
2023/06/13 03:51:49;;;;;;;25.77;12.97;;;14.10;89.20;;;;;;5051109;28;20481;-59
2023/06/13 03:54:16;;;;;;;26.60;14.23;;;14.10;89.00;;;;;;5039542;28;20551;-59
2023/06/13 03:56:43;;;;;;;25.00;13.67;;;14.10;88.90;;;;;;5034986;28;21000;-59
2023/06/13 03:59:09;;;;;;;17.80;12.17;;;14.00;88.20;;;;;;5046426;28;20480;-59
2023/06/13 04:01:40;;;;;;;25.03;13.93;;;14.00;89.10;;;;;;5046939;28;20488;-59
2023/06/13 04:04:07;;;;;;;18.50;11.90;;;14.00;89.70;;;;;;5031138;28;20473;-58
2023/06/13 04:06:34;;;;;;;33.33;15.57;;;14.10;90.10;;;;;;5051606;28;20479;-59
2023/06/13 04:09:04;;;;;;;19.93;12.37;;;14.10;90.00;;;;;;5050702;28;20484;-59
2023/06/13 04:11:30;;;;;;;41.60;17.33;;;14.10;89.90;;;;;;5032132;28;20474;-59
2023/06/13 04:13:57;;;;;;;33.37;11.73;;;14.10;89.60;;;;;;5065120;28;20602;-59
2023/06/13 04:16:24;;;;;;;41.30;19.50;;;14.20;89.30;;;;;;5054624;28;20473;-59
2023/06/13 04:18:54;;;;;;;22.60;12.70;;;14.20;89.40;;;;;;5053642;28;20587;-60
2023/06/13 04:21:24;;;;;;;26.30;12.40;;;14.20;89.40;;;;;;5026228;28;20526;-60
2023/06/13 04:23:51;;;;;;;31.30;15.40;;;14.30;90.00;;;;;;5043145;28;20483;-59
2023/06/13 04:26:18;;;;;;;27.17;14.97;;;14.30;90.00;;;;;;5049003;28;20490;-59
2023/06/13 04:28:45;;;;;;;21.60;12.47;;;14.30;90.10;;;;;;5055545;28;20482;-59
2023/06/13 04:31:12;;;;;;;23.37;12.17;;;14.40;90.20;;;;;;5049840;28;20486;-59
2023/06/13 04:33:39;;;;;;;26.70;14.60;;;14.40;90.30;;;;;;5045411;28;20588;-59
2023/06/13 04:36:08;;;;;;;19.47;13.13;;;14.50;90.30;;;;;;5047114;28;20484;-59
2023/06/13 04:38:37;;;;;;;32.50;16.67;;;14.60;90.10;;;;;;5046858;28;20581;-59
2023/06/13 04:41:05;;;;;;;18.27;12.63;;;;;;;;;;5039825;28;20477;-59
2023/06/13 04:43:33;;;;;;;34.30;17.90;;;14.70;90.00;;;;;;5047628;28;20485;-59
2023/06/13 04:46:03;;;;;;;20.23;12.13;;;14.80;90.10;;;;;;5033637;28;20521;-59
2023/06/13 04:48:30;;;;;;;25.83;13.47;;;14.90;90.00;;;;;;5036927;28;21233;-59
2023/06/13 04:50:58;;;;;;;22.93;13.80;;;14.90;90.00;;;;;;5053817;28;20491;-59
2023/06/13 04:53:26;;;;;;;30.03;15.17;;;15.00;90.10;;;;;;5054096;28;20912;-59
2023/06/13 04:55:53;;;;;;;33.00;13.00;;;15.20;89.90;;;;;;5053359;28;20482;-59
2023/06/13 04:58:20;;;;;;;22.80;12.70;;;15.30;89.70;;;;;;5039593;28;20467;-59
2023/06/13 05:00:48;;;;;;;22.50;12.80;;;15.30;90.20;;;;;;5041853;28;20562;-59
2023/06/13 05:03:16;;;;;;;22.93;11.67;;;15.60;89.50;;;;;;5034313;28;20491;-59
2023/06/13 05:05:43;;;;;;;23.97;13.30;;;15.70;89.60;;;;;;5056182;28;20486;-59
2023/06/13 05:08:10;;;;;;;19.90;12.60;;;15.90;89.60;;;;;;5041541;28;20583;-59
2023/06/13 05:10:38;;;;;;;26.83;12.40;;;16.00;89.10;;;;;;5040149;28;20491;-59
2023/06/13 05:13:05;;;;;;;19.10;11.80;;;16.10;88.50;;;;;;5060688;28;20475;-59
2023/06/13 05:15:32;;;;;;;33.13;17.10;;;16.20;88.70;;;;;;5049613;28;20480;-59
2023/06/13 05:17:59;;;;;;;20.13;10.47;;;16.40;89.10;;;;;;5039053;28;21006;-59
2023/06/13 05:20:26;;;;;;;28.53;13.20;;;16.40;88.60;;;;;;5049514;28;21170;-59
2023/06/13 05:22:53;;;;;;;19.97;11.07;;;16.50;88.00;;;;;;5055724;28;20929;-59
2023/06/13 05:25:20;;;;;;;31.77;13.53;;;16.70;87.90;;;;;;5049340;28;21021;-59
2023/06/13 05:27:49;;;;;;;20.03;13.17;;;16.80;87.60;;;;;;5069559;28;20559;-59
2023/06/13 05:30:16;;;;;;;17.23;11.20;;;16.80;87.90;;;;;;5041179;28;20484;-59
2023/06/13 05:32:43;;;;;;;19.00;11.43;;;17.00;87.90;;;;;;5057541;28;20491;-59
2023/06/13 05:35:10;;;;;;;17.13;11.63;;;17.10;87.90;;;;;;5055556;28;20467;-59
2023/06/13 05:37:38;;;;;;;23.80;14.07;;;17.20;87.40;;;;;;5044302;28;20498;-59
2023/06/13 05:40:06;;;;;;;17.03;9.47;;;17.30;87.20;;;;;;5051584;28;20548;-59
2023/06/13 05:42:34;;;;;;;23.70;14.17;;;17.40;86.60;;;;;;5055056;28;20485;-59
2023/06/13 05:45:03;;;;;;;18.53;12.47;;;17.50;86.20;;;;;;5060009;28;20516;-59
2023/06/13 05:47:30;;;;;;;21.97;11.40;;;17.70;85.90;;;;;;5047863;28;20951;-58
2023/06/13 05:49:57;;;;;;;14.37;9.67;;;17.80;85.50;;;;;;5053702;28;20905;-58
2023/06/13 05:52:24;;;;;;;19.73;11.70;;;17.90;85.40;;;;;;5054541;28;20571;-59
2023/06/13 05:54:51;;;;;;;21.37;11.00;;;18.00;84.20;;;;;;5053786;28;21043;-58
2023/06/13 05:57:17;;;;;;;18.37;10.80;;;18.10;84.30;;;;;;5049851;28;20478;-58
2023/06/13 05:59:44;;;;;;;18.83;9.93;;;18.30;84.20;;;;;;5028744;28;20480;-58
2023/06/13 06:02:13;;;;;;;12.87;8.83;;;18.40;85.20;;;;;;5051060;28;20479;-59
2023/06/13 06:04:40;;;;;;;18.43;11.93;;;18.50;83.70;;;;;;5051643;28;21016;-59
2023/06/13 06:07:07;;;;;;;14.23;9.30;;;18.60;82.90;;;;;;5036856;28;21205;-59
2023/06/13 06:09:34;;;;;;;15.60;10.03;;;18.80;82.20;;;;;;5050283;28;20478;-59
2023/06/13 06:12:00;;;;;;;12.90;8.33;;;18.90;82.40;;;;;;5052063;28;20484;-59
2023/06/13 06:14:27;;;;;;;25.20;10.07;;;19.10;82.00;;;;;;5037154;28;20509;-59
2023/06/13 06:16:55;;;;;;;16.03;10.10;;;19.20;81.70;;;;;;5044423;28;20481;-58
2023/06/13 06:19:23;;;;;;;15.60;10.43;;;19.30;79.40;;;;;;5044916;28;20468;-59
2023/06/13 06:21:50;;;;;;;14.77;8.53;;;;;;;;;;5041110;28;20487;-59
2023/06/13 06:24:17;;;;;;;19.23;10.87;;;19.50;77.80;;;;;;5038712;28;20473;-59
2023/06/13 06:26:43;;;;;;;18.20;10.17;;;19.70;77.90;;;;;;5057312;28;20846;-59
2023/06/13 06:29:11;;;;;;;15.23;7.80;;;;;;;;;;5051774;28;20502;-59
2023/06/13 06:31:37;;;;;;;15.00;9.50;;;19.90;76.60;;;;;;5051637;28;20776;-59
2023/06/13 06:34:04;;;;;;;12.60;8.70;;;20.00;74.80;;;;;;5046120;28;21206;-59
2023/06/13 06:36:32;;;;;;;25.17;14.20;;;20.10;75.00;;;;;;5045398;28;20485;-59
2023/06/13 06:38:59;;;;;;;14.30;8.17;;;20.20;75.10;;;;;;5025410;28;20482;-59
2023/06/13 06:41:26;;;;;;;21.40;12.83;;;20.40;76.30;;;;;;5056281;28;20532;-59
2023/06/13 06:43:53;;;;;;;12.47;8.30;;;20.50;73.80;;;;;;5044660;28;20610;-59
2023/06/13 06:46:20;;;;;;;13.53;9.70;;;20.70;73.60;;;;;;5057182;28;20476;-59
2023/06/13 06:48:47;;;;;;;11.80;7.60;;;20.70;73.00;;;;;;5049808;28;20512;-59
2023/06/13 06:51:14;;;;;;;14.80;9.63;;;;;;;;;;5054738;28;20486;-59
2023/06/13 06:53:43;;;;;;;10.57;7.90;;;21.00;72.10;;;;;;5054560;28;20471;-59
2023/06/13 06:56:10;;;;;;;18.27;10.27;;;;;;;;;;5053510;28;20497;-59
2023/06/13 06:58:37;;;;;;;14.43;8.73;;;21.10;69.90;;;;;;5057241;28;20481;-59
2023/06/13 07:01:03;;;;;;;13.73;8.03;;;21.30;69.80;;;;;;5058118;28;20564;-59
2023/06/13 07:03:30;;;;;;;15.50;10.00;;;21.40;67.90;;;;;;5047594;28;20470;-59
2023/06/13 07:05:57;;;;;;;13.93;8.90;;;21.60;69.80;;;;;;5052611;28;20521;-59
2023/06/13 07:08:24;;;;;;;19.67;10.27;;;21.80;68.30;;;;;;5050763;28;20482;-59
2023/06/13 07:10:53;;;;;;;27.87;8.93;;;22.00;67.60;;;;;;5055319;28;20710;-59
2023/06/13 07:13:20;;;;;;;16.70;8.73;;;22.20;68.70;;;;;;5059560;28;20556;-59
2023/06/13 07:15:46;;;;;;;13.80;9.40;;;22.40;68.70;;;;;;5054866;28;20495;-59
2023/06/13 07:18:13;;;;;;;12.37;7.77;;;22.50;66.80;;;;;;5055299;28;20478;-59
2023/06/13 07:20:40;;;;;;;14.13;7.47;;;22.60;66.70;;;;;;5055396;28;20474;-59
2023/06/13 07:23:07;;;;;;;17.30;7.53;;;22.70;66.00;;;;;;5056631;28;20480;-59
2023/06/13 07:25:34;;;;;;;24.57;11.20;;;22.80;65.40;;;;;;5044870;28;20975;-59
2023/06/13 07:28:02;;;;;;;12.50;7.87;;;22.80;63.70;;;;;;5048958;28;20476;-60
2023/06/13 07:30:29;;;;;;;22.07;12.63;;;22.70;63.60;;;;;;5052671;28;20966;-60
2023/06/13 07:32:56;;;;;;;12.13;7.03;;;22.90;65.60;;;;;;5057350;28;20480;-59
2023/06/13 07:35:23;;;;;;;15.90;9.73;;;22.90;64.10;;;;;;5049403;28;20704;-59
2023/06/13 07:37:50;;;;;;;12.23;8.20;;;23.10;64.50;;;;;;5055464;28;20483;-59
2023/06/13 07:40:17;;;;;;;11.17;8.50;;;23.20;63.70;;;;;;5057499;28;20477;-59
2023/06/13 07:42:44;;;;;;;17.37;8.07;;;23.50;64.00;;;;;;5042190;28;20473;-60
2023/06/13 07:45:14;;;;;;;11.53;7.00;;;23.60;62.50;;;;;;5053964;28;20477;-60
2023/06/13 07:47:41;;;;;;;16.50;8.70;;;23.50;62.50;;;;;;5042198;28;20513;-59
2023/06/13 07:50:08;;;;;;;26.87;8.10;;;23.70;64.80;;;;;;5047444;28;20866;-60
2023/06/13 07:52:35;;;;;;;18.80;11.33;;;23.70;61.30;;;;;;5050472;28;20492;-60
2023/06/13 07:55:02;;;;;;;14.07;8.23;;;23.90;63.10;;;;;;5054149;28;20493;-60
2023/06/13 07:57:29;;;;;;;22.67;10.23;;;23.80;60.40;;;;;;5057326;28;20485;-60
2023/06/13 07:59:56;;;;;;;9.67;7.73;;;23.90;64.00;;;;;;5052571;28;20508;-59
2023/06/13 08:02:26;;;;;;;15.60;10.87;;;23.90;61.20;;;;;;5057721;28;20825;-59
2023/06/13 08:04:52;;;;;;;20.30;8.67;;;24.30;61.40;;;;;;5046903;28;20477;-59
2023/06/13 08:07:19;;;;;;;17.90;9.63;;;24.40;61.70;;;;;;5056706;28;20473;-59
2023/06/13 08:09:46;;;;;;;13.63;8.77;;;24.40;59.30;;;;;;5037167;28;20493;-59
2023/06/13 08:12:13;;;;;;;9.60;7.13;;;24.60;61.80;;;;;;5050130;28;20703;-59
2023/06/13 08:14:40;;;;;;;11.03;7.93;;;24.60;59.80;;;;;;5041658;28;20873;-59
2023/06/13 08:17:07;;;;;;;15.53;8.43;;;24.60;60.00;;;;;;5048123;28;20492;-59
2023/06/13 08:19:35;;;;;;;16.93;9.43;;;24.70;60.70;;;;;;5052264;28;20493;-60
2023/06/13 08:22:02;;;;;;;15.43;6.73;;;24.80;59.70;;;;;;5056955;28;21492;-59
2023/06/13 08:24:29;;;;;;;25.57;12.90;;;24.90;59.90;;;;;;5043486;28;20474;-60
2023/06/13 08:26:57;;;;;;;16.80;7.73;;;25.00;58.40;;;;;;5048884;28;20485;-59
2023/06/13 08:29:28;;;;;;;13.53;9.03;;;24.90;59.10;;;;;;5052281;28;20489;-59
2023/06/13 08:31:55;;;;;;;11.53;7.50;;;24.90;59.30;;;;;;5046178;28;20602;-59
2023/06/13 08:34:22;;;;;;;16.33;8.10;;;25.10;60.70;;;;;;5052234;28;20490;-60
2023/06/13 08:36:50;;;;;;;14.73;9.10;;;25.20;59.90;;;;;;5053980;28;20978;-60
2023/06/13 08:39:17;;;;;;;11.77;8.03;;;25.30;57.80;;;;;;5039413;28;20583;-60
2023/06/13 08:41:45;;;;;;;16.13;6.70;;;25.40;58.00;;;;;;5058369;28;20855;-59
2023/06/13 08:44:12;;;;;;;10.00;7.23;;;25.40;58.30;;;;;;5037850;28;20476;-59
2023/06/13 08:46:39;;;;;;;11.53;8.13;;;25.40;58.10;;;;;;5048928;28;20493;-60
2023/06/13 08:49:06;;;;;;;17.03;6.30;;;25.40;57.60;;;;;;5059087;28;20511;-60
2023/06/13 08:51:33;;;;;;;12.33;9.10;;;25.40;56.60;;;;;;5059559;28;20543;-59
2023/06/13 08:54:03;;;;;;;9.93;8.07;;;25.40;55.90;;;;;;5055885;28;20500;-60
2023/06/13 08:56:34;;;;;;;17.87;9.77;;;25.50;56.60;;;;;;5047957;28;20482;-60
2023/06/13 08:59:05;;;;;;;7.83;7.03;;;25.60;56.60;;;;;;5046489;28;20478;-59
2023/06/13 09:01:32;;;;;;;19.70;9.30;;;25.80;56.80;;;;;;5051573;28;21002;-59
2023/06/13 09:04:01;;;;;;;13.47;8.17;;;26.00;57.40;;;;;;5057561;28;20486;-60
2023/06/13 09:06:31;;;;;;;13.60;7.20;;;26.20;57.80;;;;;;5051476;28;20481;-60
2023/06/13 09:08:58;;;;;;;14.70;6.63;;;26.40;57.30;;;;;;5051317;28;20581;-60
2023/06/13 09:11:29;;;;;;;13.83;9.60;;;26.50;55.80;;;;;;5044845;28;20492;-60
2023/06/13 09:13:59;;;;;;;15.83;6.43;;;26.50;54.00;;;;;;5034732;28;20856;-60
2023/06/13 09:16:27;;;;;;;15.03;9.63;;;26.50;54.40;;;;;;5041359;28;20474;-60
2023/06/13 09:18:54;;;;;;;10.53;7.20;;;26.50;53.70;;;;;;5053020;28;20500;-60
2023/06/13 09:21:21;;;;;;;13.17;9.70;;;26.60;55.10;;;;;;5039562;28;21073;-60
2023/06/13 09:23:53;;;;;;;7.90;6.60;;;26.60;54.90;;;;;;5028827;28;20660;-60
2023/06/13 09:26:19;;;;;;;11.53;8.97;;;26.70;54.10;;;;;;5052495;28;20595;-60
2023/06/13 09:28:48;;;;;;;8.67;7.63;;;26.80;54.10;;;;;;5048013;28;20493;-60
2023/06/13 09:31:15;;;;;;;19.07;8.10;;;26.70;53.10;;;;;;5034337;28;20490;-60
2023/06/13 09:33:45;;;;;;;9.00;7.73;;;26.80;56.60;;;;;;5039893;28;20492;-60
2023/06/13 09:36:12;;;;;;;11.57;6.93;;;26.80;54.10;;;;;;5052859;28;20488;-60
2023/06/13 09:38:41;;;;;;;10.60;8.07;;;26.90;53.20;;;;;;5039491;28;20492;-60
2023/06/13 09:41:11;;;;;;;11.30;8.50;;;26.80;53.20;;;;;;5032611;28;20485;-60
2023/06/13 09:43:38;;;;;;;16.90;7.70;;;26.40;50.60;;;;;;5055426;28;20993;-60
2023/06/13 09:46:09;;;;;;;8.87;7.60;;;26.60;51.90;;;;;;5069625;28;20488;-60
2023/06/13 09:48:36;;;;;;;13.20;9.27;;;26.60;51.90;;;;;;5060292;28;20488;-60
2023/06/13 09:51:10;;;;;;;15.90;8.23;;;26.60;53.90;;;;;;5064402;28;20483;-60
2023/06/13 09:53:37;;;;;;;12.27;9.40;;;26.50;51.10;;;;;;5067781;28;20633;-60
2023/06/13 09:56:07;;;;;;;9.00;6.67;;;26.70;53.70;;;;;;5071428;28;20502;-60
2023/06/13 09:58:35;;;;;;;10.00;8.17;;;26.80;51.80;;;;;;5067939;28;20479;-60
2023/06/13 10:01:04;;;;;;;10.07;8.17;;;26.90;51.10;;;;;;5064376;28;20481;-60
2023/06/13 10:03:33;;;;;;;11.80;9.17;;;27.00;52.50;;;;;;5058008;28;20465;-60
2023/06/13 10:06:00;;;;;;;9.80;7.10;;;27.10;53.10;;;;;;5070176;28;20487;-60
2023/06/13 10:08:27;;;;;;;9.80;8.40;;;27.10;51.90;;;;;;5060744;28;20477;-60
2023/06/13 10:10:55;;;;;;;17.23;7.60;;;27.40;54.20;;;;;;5064981;28;20692;-60
2023/06/13 10:13:26;;;;;;;13.30;8.10;;;27.40;52.90;;;;;;5072452;28;21103;-60
2023/06/13 10:15:56;;;;;;;8.07;7.23;;;27.30;50.00;;;;;;5062532;28;20480;-60
2023/06/13 10:18:26;;;;;;;14.53;8.23;;;;;;;;;;5059517;28;20481;-59
2023/06/13 10:20:57;;;;;;;11.10;8.43;;;27.40;52.60;;;;;;5061401;28;20482;-60
2023/06/13 10:23:28;;;;;;;10.20;8.03;;;27.50;53.00;;;;;;5069972;28;21009;-60
2023/06/13 10:25:58;;;;;;;9.20;6.80;;;27.50;51.90;;;;;;5068515;28;20602;-60
2023/06/13 10:28:41;;;;;;;12.63;10.23;;;27.60;52.70;;;;;;5060749;28;20477;-60
2023/06/13 10:31:15;;;;;;;13.77;7.37;;;27.60;52.10;;;;;;5061451;28;20490;-60
2023/06/13 10:34:00;;;;;;;13.50;8.07;;;27.60;52.50;;;;;;5066027;28;21278;-60
2023/06/13 10:36:47;;;;;;;11.43;8.77;;;27.70;52.00;;;;;;5042981;28;20498;-61
2023/06/13 10:39:50;;;;;;;29.13;8.10;;;27.70;50.10;;;;;;5055021;28;20467;-60
2023/06/13 10:42:22;;;;;;;19.73;8.30;;;27.60;50.50;;;;;;5057422;28;20476;-61
2023/06/13 10:44:57;;;;;;;11.20;9.07;;;27.60;51.00;;;;;;5061735;28;20487;-60
2023/06/13 10:47:24;;;;;;;17.43;10.93;;;27.40;47.70;;;;;;5063739;28;20687;-60
2023/06/13 10:49:53;;;;;;;14.27;7.33;;;27.40;49.80;;;;;;5035785;28;21005;-61
2023/06/13 10:52:23;;;;;;;12.40;9.47;;;27.60;53.10;;;;;;5054898;28;20485;-60
2023/06/13 10:54:53;;;;;;;10.23;7.63;;;28.00;53.10;;;;;;5069831;28;21071;-61
2023/06/13 10:57:20;;;;;;;11.07;7.60;;;28.10;49.80;;;;;;5059742;28;21321;-60
2023/06/13 10:59:49;;;;;;;13.40;9.20;;;28.20;49.50;;;;;;5056141;28;21030;-60
2023/06/13 11:02:17;;;;;;;11.80;7.90;;;28.40;50.40;;;;;;5068282;28;20528;-60
2023/06/13 11:04:52;;;;;;;15.00;7.67;;;28.50;48.80;;;;;;5058510;28;21146;-60
2023/06/13 11:07:28;;;;;;;14.97;8.10;;;28.60;51.20;;;;;;5064588;28;20532;-60
2023/06/13 11:10:03;;;;;;;10.97;8.53;;;28.70;50.50;;;;;;5066526;28;20484;-60
2023/06/13 11:12:31;;;;;;;11.30;9.50;;;28.80;50.50;;;;;;5071690;28;20476;-61
2023/06/13 11:14:59;;;;;;;13.50;7.23;;;28.60;48.30;;;;;;5057844;28;20482;-61
2023/06/13 11:17:27;;;;;;;24.63;13.03;;;28.70;50.20;;;;;;5063115;28;20476;-60
2023/06/13 11:19:55;;;;;;;8.80;7.90;;;28.40;46.20;;;;;;5071210;28;20487;-61
2023/06/13 11:22:23;;;;;;;11.80;8.00;;;28.10;47.00;;;;;;5055869;28;20459;-61
2023/06/13 11:24:52;;;;;;;9.37;7.63;;;28.30;50.90;;;;;;5072609;28;20470;-60
2023/06/13 11:27:20;;;;;;;9.00;7.10;;;28.50;50.70;;;;;;5050119;28;20486;-60
2023/06/13 11:29:47;;;;;;;16.87;7.27;;;28.70;51.10;;;;;;5059994;28;20561;-60
2023/06/13 11:32:14;;;;;;;6.93;6.23;;;28.70;47.20;;;;;;5055068;28;20489;-60
2023/06/13 11:34:43;;;;;;;8.17;7.00;;;28.70;48.10;;;;;;5070486;28;20790;-61
2023/06/13 11:37:19;;;;;;;11.40;7.30;;;28.90;48.40;;;;;;5071119;28;20487;-61
2023/06/13 11:39:53;;;;;;;13.50;8.03;;;28.80;47.40;;;;;;5064678;28;20863;-60
2023/06/13 11:42:22;;;;;;;17.53;7.47;;;28.80;47.80;;;;;;5017840;28;20469;-61
2023/06/13 11:44:49;;;;;;;13.60;7.93;;;28.80;48.70;;;;;;5032145;28;20510;-60
2023/06/13 11:47:16;;;;;;;17.57;10.37;;;28.80;47.10;;;;;;5040816;28;20483;-60
2023/06/13 11:49:53;;;;;;;12.30;6.43;;;28.80;48.20;;;;;;5033748;28;21558;-60
2023/06/13 11:52:20;;;;;;;13.57;9.13;;;28.70;48.50;;;;;;5050897;28;20485;-60
2023/06/13 11:54:48;;;;;;;24.57;9.30;;;28.80;47.40;;;;;;5061222;28;20460;-60
2023/06/13 11:57:15;;;;;;;7.60;6.33;;;28.90;47.30;;;;;;5038687;28;20818;-60
2023/06/13 11:59:44;;;;;;;16.53;9.00;;;29.10;47.80;;;;;;5055749;28;20472;-60
2023/06/13 12:02:11;;;;;;;6.67;6.10;;;;;;;;;;5079510;28;20486;-60
2023/06/13 12:04:39;;;;;;;14.57;9.70;;;29.50;47.60;;;;;;5061751;28;20504;-60
2023/06/13 12:07:07;;;;;;;11.47;7.97;;;29.50;47.80;;;;;;5043315;28;20518;-60
2023/06/13 12:09:34;;;;;;;13.10;8.17;;;29.50;47.90;;;;;;5070289;28;20491;-60
2023/06/13 12:12:02;;;;;;;9.60;7.00;;;29.50;46.70;;;;;;5060456;28;20488;-60
2023/06/13 12:14:30;;;;;;;17.30;11.23;;;29.10;43.90;;;;;;5064496;28;20487;-60
2023/06/13 12:16:59;;;;;;;19.27;8.87;;;29.10;46.20;;;;;;5070080;28;21023;-60
2023/06/13 12:19:26;;;;;;;16.10;9.37;;;28.80;44.30;;;;;;5067383;28;21105;-60
2023/06/13 12:21:59;;;;;;;9.57;7.50;;;29.10;48.40;;;;;;5039933;28;20460;-60
2023/06/13 12:24:26;;;;;;;10.83;8.83;;;29.10;46.40;;;;;;5028295;28;20558;-60
2023/06/13 12:26:53;;;;;;;11.37;9.93;;;29.20;46.70;;;;;;5053162;28;20504;-60
2023/06/13 12:29:23;;;;;;;16.60;10.10;;;;;;;;;;5070868;28;20678;-60
2023/06/13 12:31:58;;;;;;;15.43;10.90;;;29.70;45.60;;;;;;5045405;28;20837;-60
2023/06/13 12:34:29;;;;;;;24.17;14.00;;;29.50;45.30;;;;;;5045500;28;20870;-60
2023/06/13 12:36:59;;;;;;;16.70;9.67;;;29.60;47.30;;;;;;5072048;28;20772;-60
2023/06/13 12:39:30;;;;;;;21.20;13.63;;;29.40;43.50;;;;;;5050549;28;20484;-60
2023/06/13 12:42:01;;;;;;;16.80;11.00;;;29.40;46.50;;;;;;5058775;28;20483;-60